Time;durP1;ratioP1;P1;durP2;ratioP2;P2;SDS_P1;SDS_P2;PMS_P1;PMS_P2;Temp;Humidity;BMP_temperature;BMP_pressure;BME280_temperature;BME280_humidity;BME280_pressure;Samples;Min_cycle;Max_cycle;Signal;HPM_P1;HPM_P2
2022/01/31 00:02:16;;;;;;;12.98;5.15;;;;;;;5.09;60.47;100320.31;5040880;28;20049;-83
2022/01/31 00:04:43;;;;;;;19.40;5.20;;;;;;;5.04;60.32;100317.59;5058043;28;20052;-84
2022/01/31 00:07:11;;;;;;;14.07;5.65;;;;;;;5.11;59.92;100311.75;5035447;28;20056;-83
2022/01/31 00:09:40;;;;;;;14.10;5.13;;;;;;;5.15;59.83;100298.22;5039879;28;20056;-83
2022/01/31 00:12:12;;;;;;;16.87;4.63;;;;;;;5.01;60.00;100284.19;5040161;28;20060;-82
2022/01/31 00:14:42;;;;;;;12.60;4.32;;;;;;;5.01;60.23;100284.19;5040366;28;20064;-83
2022/01/31 00:17:11;;;;;;;14.07;4.35;;;;;;;5.10;59.82;100276.97;5038029;28;20055;-83
2022/01/31 00:19:40;;;;;;;10.40;3.97;;;;;;;5.12;59.34;100260.94;5043782;28;20048;-83
2022/01/31 00:22:09;;;;;;;13.88;5.57;;;;;;;5.09;59.70;100247.72;5041310;28;20060;-82
2022/01/31 00:24:37;;;;;;;12.77;3.83;;;;;;;5.12;59.70;100246.31;5039643;28;20046;-83
2022/01/31 00:27:06;;;;;;;11.82;3.80;;;;;;;5.19;58.81;100236.63;5039809;28;20049;-83
2022/01/31 00:29:35;;;;;;;11.20;4.05;;;;;;;5.24;58.86;100235.78;5041161;28;20050;-83
2022/01/31 00:32:03;;;;;;;11.18;3.95;;;;;;;5.30;59.31;100220.81;5043789;28;20049;-83
2022/01/31 00:34:31;;;;;;;11.85;4.07;;;;;;;5.28;58.84;100217.53;5039782;28;20049;-82
2022/01/31 00:36:58;;;;;;;10.68;3.80;;;;;;;5.19;58.80;100220.06;5049125;28;20512;-82
2022/01/31 00:39:25;;;;;;;15.40;5.25;;;;;;;5.40;58.59;100220.75;5058651;28;20049;-82
2022/01/31 00:41:53;;;;;;;11.60;3.60;;;;;;;5.20;58.69;100183.03;5040263;28;20057;-83
2022/01/31 00:44:25;;;;;;;8.20;3.33;;;;;;;5.32;58.45;100179.13;5048487;28;20063;-83
2022/01/31 00:46:59;;;;;;;11.05;3.45;;;;;;;5.34;58.49;100172.19;5049018;28;20514;-83
2022/01/31 00:49:36;;;;;;;14.38;4.03;;;;;;;5.35;58.90;100173.00;5039788;28;20049;-83
2022/01/31 00:52:05;;;;;;;13.23;4.50;;;;;;;5.38;58.38;100170.50;5046983;28;20410;-82
2022/01/31 00:54:32;;;;;;;17.70;3.50;;;;;;;5.37;58.43;100168.84;5040382;28;20418;-82
2022/01/31 00:56:59;;;;;;;14.02;3.80;;;;;;;5.31;59.26;100160.88;5053342;28;20061;-83
2022/01/31 00:59:27;;;;;;;12.65;3.83;;;;;;;5.39;58.25;100158.34;5040273;28;20053;-82
2022/01/31 01:01:56;;;;;;;11.88;3.15;;;;;;;5.39;59.16;100157.50;5045571;28;20046;-83
2022/01/31 01:04:23;;;;;;;9.63;3.17;;;;;;;5.43;59.05;100142.03;5039080;28;20064;-82
2022/01/31 01:06:51;;;;;;;19.73;5.15;;;;;;;5.27;59.59;100138.53;5039087;28;20471;-83
2022/01/31 01:09:18;;;;;;;11.18;4.10;;;;;;;5.36;59.57;100130.50;5045170;28;20486;-83
2022/01/31 01:11:46;;;;;;;10.10;3.40;;;;;;;5.29;59.54;100136.31;5048852;28;20544;-82
2022/01/31 01:14:13;;;;;;;12.65;3.85;;;;;;;5.40;59.28;100102.00;5038767;28;20053;-83
2022/01/31 01:16:41;;;;;;;12.10;3.20;;;;;;;5.46;59.52;100097.25;5048155;28;20054;-83
2022/01/31 01:19:10;;;;;;;10.55;4.05;;;;;;;5.49;58.75;100088.38;5043226;28;20069;-82
2022/01/31 01:21:37;;;;;;;8.98;2.90;;;;;;;5.54;58.91;100066.22;5045202;28;20060;-81
2022/01/31 01:24:05;;;;;;;11.38;3.38;;;;;;;5.42;59.30;100039.00;5059070;28;20056;-82
2022/01/31 01:26:32;;;;;;;11.52;4.25;;;;;;;5.54;59.31;100022.03;5042583;28;20048;-82
2022/01/31 01:29:00;;;;;;;12.15;3.42;;;;;;;5.52;59.47;100017.91;5043914;28;20044;-81
2022/01/31 01:31:27;;;;;;;11.77;3.58;;;;;;;5.60;58.58;100018.09;5037713;28;20053;-82
2022/01/31 01:33:55;;;;;;;9.10;3.15;;;;;;;5.59;58.92;100002.66;5038136;28;20076;-81
2022/01/31 01:36:23;;;;;;;10.73;3.17;;;;;;;5.45;59.24;99994.22;5041031;28;20049;-81
2022/01/31 01:38:51;;;;;;;9.82;2.83;;;;;;;5.43;59.38;100015.78;5038882;28;20056;-82
2022/01/31 01:41:18;;;;;;;9.93;3.47;;;;;;;5.33;59.79;99982.75;5038225;28;20049;-81
2022/01/31 01:43:46;;;;;;;12.23;3.67;;;;;;;5.34;59.60;99961.50;5037973;28;20049;-82
2022/01/31 01:46:14;;;;;;;14.82;3.72;;;;;;;5.28;60.30;99935.88;5038998;28;20045;-80
2022/01/31 01:48:42;;;;;;;11.90;3.70;;;;;;;5.27;60.19;99926.75;5038719;28;20049;-80
2022/01/31 01:51:09;;;;;;;10.30;3.80;;;;;;;5.43;59.96;99910.81;5038185;28;20060;-81
2022/01/31 01:53:38;;;;;;;10.82;3.40;;;;;;;5.22;61.03;99888.16;5044450;28;20052;-80
2022/01/31 01:56:08;;;;;;;10.18;3.20;;;;;;;5.39;60.71;99881.34;5051667;28;20053;-82
2022/01/31 01:58:40;;;;;;;;;;;;;;;5.37;60.39;99862.28;5047207;28;20052;-82
2022/01/31 02:01:09;;;;;;;11.30;3.67;;;;;;;5.43;60.32;99850.06;5056640;28;19928;-82
2022/01/31 02:03:38;;;;;;;10.32;3.55;;;;;;;5.40;60.41;99833.28;5035450;28;20049;-82
2022/01/31 02:06:06;;;;;;;12.98;4.28;;;;;;;5.38;60.23;99822.53;5031978;28;20053;-82
2022/01/31 02:08:39;;;;;;;11.38;3.28;;;;;;;5.51;59.95;99812.69;5037859;28;20083;-82
2022/01/31 02:11:10;;;;;;;9.30;2.83;;;;;;;5.41;60.65;99793.50;5043014;28;20057;-82
2022/01/31 02:13:39;;;;;;;10.93;3.83;;;;;;;5.24;60.71;99777.44;5038755;28;20057;-82
2022/01/31 02:16:08;;;;;;;11.45;4.07;;;;;;;5.46;60.39;99755.59;5038076;28;20054;-82
2022/01/31 02:18:41;;;;;;;8.45;2.97;;;;;;;5.17;60.75;99755.72;5041587;28;20045;-82
2022/01/31 02:21:10;;;;;;;14.93;3.78;;;;;;;5.32;60.43;99748.34;5043877;28;20505;-82
2022/01/31 02:23:37;;;;;;;10.38;2.85;;;;;;;5.47;60.47;99745.34;5051592;28;20503;-82
2022/01/31 02:26:06;;;;;;;12.60;3.70;;;;;;;5.32;60.68;99738.09;5040404;28;20058;-82
2022/01/31 02:28:35;;;;;;;10.73;3.33;;;;;;;5.54;59.79;99720.13;5039492;28;20060;-82
2022/01/31 02:31:04;;;;;;;10.70;3.47;;;;;;;5.55;59.87;99707.97;5050224;28;20053;-82
2022/01/31 02:33:31;;;;;;;8.43;3.10;;;;;;;5.33;60.46;99705.78;5057602;28;20397;-82
2022/01/31 02:36:00;;;;;;;9.77;3.33;;;;;;;5.49;60.43;99710.78;5051885;28;20406;-82
2022/01/31 02:38:30;;;;;;;11.33;3.53;;;;;;;5.47;61.95;99698.41;5057714;28;20056;-82
2022/01/31 02:40:57;;;;;;;15.07;3.75;;;;;;;4.97;69.62;99686.97;5045720;28;20061;-81
2022/01/31 02:43:27;;;;;;;13.50;4.75;;;;;;;4.52;75.61;99680.91;5042007;28;20053;-81
2022/01/31 02:45:54;;;;;;;;;;;;;;;4.27;81.02;99669.06;5056901;28;20049;-81
2022/01/31 02:48:24;;;;;;;15.07;4.32;;;;;;;4.11;78.18;99681.34;5043551;28;19932;-81
2022/01/31 02:50:53;;;;;;;15.85;4.60;;;;;;;3.89;77.27;99663.38;5041578;28;20053;-83
2022/01/31 02:53:25;;;;;;;11.35;4.80;;;;;;;4.02;75.40;99654.41;5047394;28;20473;-82
2022/01/31 02:55:56;;;;;;;14.98;4.88;;;;;;;4.10;76.41;99652.16;5045212;28;20060;-83
2022/01/31 02:58:24;;;;;;;18.40;5.15;;;;;;;3.94;78.31;99646.78;5043781;28;20084;-83
2022/01/31 03:00:52;;;;;;;15.77;5.07;;;;;;;3.72;79.34;99647.28;5047985;28;20045;-82
2022/01/31 03:03:20;;;;;;;19.00;5.30;;;;;;;3.90;78.99;99634.69;5064332;28;20049;-82
2022/01/31 03:05:47;;;;;;;16.67;5.85;;;;;;;3.93;78.65;99638.84;5058937;28;20049;-82
2022/01/31 03:08:15;;;;;;;16.48;6.07;;;;;;;3.83;78.80;99651.56;5050556;28;20052;-81
2022/01/31 03:10:42;;;;;;;19.40;6.88;;;;;;;3.65;81.36;99620.09;5052562;28;20052;-81
2022/01/31 03:13:12;;;;;;;21.30;6.60;;;;;;;3.56;82.68;99621.81;5021655;28;20054;-82
2022/01/31 03:15:40;;;;;;;17.35;6.85;;;;;;;3.32;85.61;99598.88;5022846;28;20057;-81
2022/01/31 03:18:07;;;;;;;15.05;6.43;;;;;;;3.10;88.48;99597.41;5059567;28;20075;-82
2022/01/31 03:20:34;;;;;;;22.70;8.65;;;;;;;3.21;90.64;99568.72;5052002;28;20457;-82
2022/01/31 03:23:03;;;;;;;19.10;7.57;;;;;;;2.99;91.05;99571.06;5057162;28;20052;-83
2022/01/31 03:25:30;;;;;;;22.48;9.32;;;;;;;2.97;92.57;99571.34;5044983;28;20068;-82
2022/01/31 03:27:58;;;;;;;20.10;7.68;;;;;;;2.86;92.23;99556.03;5043569;28;20049;-83
2022/01/31 03:30:27;;;;;;;24.67;9.10;;;;;;;2.89;94.17;99551.91;5039380;28;20057;-82
2022/01/31 03:32:54;;;;;;;17.08;7.60;;;;;;;2.71;94.60;99545.97;5061807;28;20049;-81
2022/01/31 03:35:22;;;;;;;23.42;8.52;;;;;;;2.64;95.99;99534.47;5065362;28;20051;-81
2022/01/31 03:37:49;;;;;;;41.00;13.63;;;;;;;2.75;98.17;99522.31;5054018;28;20046;-83
2022/01/31 03:40:17;;;;;;;20.95;8.40;;;;;;;2.62;99.08;99526.50;5042859;28;20061;-82
2022/01/31 03:42:44;;;;;;;18.08;7.85;;;;;;;2.63;99.26;99516.34;5057589;28;20493;-82
2022/01/31 03:45:13;;;;;;;11.52;6.63;;;;;;;2.35;99.13;99502.22;5064151;28;20052;-83
2022/01/31 03:47:45;;;;;;;17.45;7.78;;;;;;;2.55;99.96;99516.94;5049338;28;20053;-83
2022/01/31 03:50:14;;;;;;;15.63;7.72;;;;;;;2.56;100.00;99504.81;5044302;28;20525;-83
2022/01/31 03:52:42;;;;;;;20.83;8.95;;;;;;;2.65;100.00;99497.63;5052330;28;20049;-83
2022/01/31 03:55:11;;;;;;;20.33;8.85;;;;;;;2.71;100.00;99490.13;5047540;28;20064;-83
2022/01/31 03:57:38;;;;;;;18.45;8.70;;;;;;;2.78;100.00;99483.22;5046843;28;20141;-82
2022/01/31 04:00:10;;;;;;;11.70;7.30;;;;;;;2.58;100.00;99480.63;5039462;28;20046;-83
2022/01/31 04:02:37;;;;;;;17.15;8.40;;;;;;;2.67;100.00;99481.66;5050122;28;20060;-82
2022/01/31 04:05:07;;;;;;;20.23;8.40;;;;;;;2.88;100.00;99474.06;5041398;28;20057;-82
2022/01/31 04:07:35;;;;;;;11.35;7.00;;;;;;;2.89;100.00;99469.38;5040041;28;20068;-82
2022/01/31 04:10:04;;;;;;;17.38;8.85;;;;;;;2.88;100.00;99462.22;5052692;28;20051;-81
2022/01/31 04:12:32;;;;;;;12.80;6.57;;;;;;;2.83;100.00;99461.19;5020111;28;20046;-82
2022/01/31 04:14:59;;;;;;;12.90;7.35;;;;;;;2.77;100.00;99454.09;5020643;28;20046;-81
2022/01/31 04:17:26;;;;;;;11.52;6.72;;;;;;;2.79;100.00;99449.13;5043866;28;20394;-82
2022/01/31 04:19:53;;;;;;;18.30;10.80;;;;;;;2.70;100.00;99441.78;5040705;28;20057;-82
2022/01/31 04:22:25;;;;;;;14.60;8.05;;;;;;;2.79;100.00;99442.78;5039679;28;20391;-83
2022/01/31 04:24:58;;;;;;;21.90;10.23;;;;;;;2.98;100.00;99437.38;5039787;28;20064;-84
2022/01/31 04:27:28;;;;;;;12.93;7.35;;;;;;;2.96;100.00;99437.69;5040274;28;20053;-82
2022/01/31 04:29:56;;;;;;;15.57;7.63;;;;;;;2.82;100.00;99439.47;5039209;28;20049;-84
2022/01/31 04:32:23;;;;;;;19.30;8.63;;;;;;;3.04;100.00;99427.97;5038399;28;20053;-83
2022/01/31 04:34:50;;;;;;;10.23;6.20;;;;;;;2.85;100.00;99419.63;5039639;28;20391;-86
2022/01/31 04:37:18;;;;;;;15.52;8.38;;;;;;;3.04;100.00;99427.97;5038956;28;20057;-83
2022/01/31 04:39:46;;;;;;;10.05;6.10;;;;;;;2.95;100.00;99436.03;5046499;28;20066;-82
2022/01/31 04:42:14;;;;;;;17.92;8.55;;;;;;;3.17;100.00;99427.31;5039348;28;20060;-84
2022/01/31 04:44:41;;;;;;;15.80;7.57;;;;;;;3.03;100.00;99426.34;5039903;28;20053;-83
2022/01/31 04:47:09;;;;;;;10.55;7.13;;;;;;;3.01;100.00;99421.13;5049326;28;20064;-84
2022/01/31 04:49:36;;;;;;;16.70;7.55;;;;;;;3.19;100.00;99422.34;5047318;28;20057;-84
2022/01/31 04:52:04;;;;;;;11.00;7.75;;;;;;;3.32;100.00;99414.47;5041756;28;20057;-84
2022/01/31 04:54:31;;;;;;;15.88;8.00;;;;;;;3.60;100.00;99410.03;5041767;28;20054;-82
2022/01/31 04:57:00;;;;;;;20.23;9.50;;;;;;;3.65;100.00;99399.78;5039019;28;20061;-82
2022/01/31 04:59:29;;;;;;;14.13;8.35;;;;;;;3.70;100.00;99406.34;5045394;28;20049;-82
2022/01/31 05:01:56;;;;;;;17.42;9.93;;;;;;;3.82;100.00;99387.44;5040041;28;20053;-82
2022/01/31 05:04:26;;;;;;;18.98;9.07;;;;;;;4.00;100.00;99388.56;5041305;28;20057;-83
2022/01/31 05:06:53;;;;;;;15.98;8.13;;;;;;;4.11;100.00;99394.75;5048525;28;20491;-83
2022/01/31 05:09:20;;;;;;;18.25;10.00;;;;;;;4.25;100.00;99385.44;5041286;28;20054;-82
2022/01/31 05:11:47;;;;;;;16.15;8.80;;;;;;;4.21;97.99;99373.38;5055217;28;20053;-82
2022/01/31 05:14:17;;;;;;;14.52;7.88;;;;;;;4.32;96.37;99363.00;5042548;28;20048;-82
2022/01/31 05:16:45;;;;;;;;;;;;;;;4.41;96.25;99361.22;5043495;28;20060;-82
2022/01/31 05:19:12;;;;;;;17.55;8.95;;;;;;;4.51;95.50;99362.16;5041413;28;19921;-83
2022/01/31 05:21:40;;;;;;;20.90;9.90;;;;;;;4.54;95.45;99358.81;5037961;28;20049;-83
2022/01/31 05:24:08;;;;;;;19.70;9.50;;;;;;;4.60;95.19;99357.56;5021579;28;20057;-82
2022/01/31 05:26:35;;;;;;;23.88;11.60;;;;;;;4.75;94.88;99357.31;5044124;28;20045;-81
2022/01/31 05:29:03;;;;;;;22.40;12.35;;;;;;;4.84;93.44;99333.41;5048663;28;20459;-82
2022/01/31 05:31:31;;;;;;;24.05;13.45;;;;;;;4.91;93.46;99352.31;5043347;28;20049;-82
2022/01/31 05:33:59;;;;;;;31.23;13.90;;;;;;;5.00;93.01;99346.94;5038329;28;20045;-82
2022/01/31 05:36:26;;;;;;;23.73;14.15;;;;;;;5.18;92.58;99326.69;5038667;28;20053;-82
2022/01/31 05:38:53;;;;;;;32.05;15.70;;;;;;;5.24;91.92;99332.94;5051262;28;20053;-83
2022/01/31 05:41:21;;;;;;;31.60;15.55;;;;;;;5.35;91.95;99339.88;5047886;28;20068;-83
2022/01/31 05:43:48;;;;;;;36.15;15.75;;;;;;;5.44;91.98;99326.19;5057773;28;20402;-82
2022/01/31 05:46:16;;;;;;;35.67;17.70;;;;;;;5.50;91.85;99333.22;5038561;28;20057;-82
2022/01/31 05:48:45;;;;;;;35.15;17.85;;;;;;;5.64;90.79;99322.16;5037659;28;20060;-82
2022/01/31 05:51:16;;;;;;;34.35;16.02;;;;;;;5.57;91.01;99319.00;5055638;28;20052;-83
2022/01/31 05:53:45;;;;;;;34.38;15.32;;;;;;;5.65;90.43;99313.56;5055325;28;20049;-82
2022/01/31 05:56:13;;;;;;;33.85;17.33;;;;;;;5.72;90.40;99309.56;5053572;28;20513;-83
2022/01/31 05:58:41;;;;;;;35.65;15.93;;;;;;;5.78;90.31;99313.84;5046374;28;20049;-82
2022/01/31 06:01:12;;;;;;;29.60;14.75;;;;;;;5.79;89.92;99305.22;5038098;28;20478;-84
2022/01/31 06:03:39;;;;;;;31.42;14.43;;;;;;;5.92;89.97;99302.72;5038841;28;20049;-82
2022/01/31 06:06:08;;;;;;;27.77;12.77;;;;;;;5.84;88.58;99280.25;5039143;28;20061;-83
2022/01/31 06:08:35;;;;;;;29.90;14.47;;;;;;;6.01;89.76;99279.59;5038502;28;20128;-83
2022/01/31 06:11:03;;;;;;;28.45;13.10;;;;;;;5.91;88.36;99285.34;5037775;28;20065;-82
2022/01/31 06:13:33;;;;;;;27.58;12.55;;;;;;;5.96;87.82;99287.19;5043051;28;20053;-81
2022/01/31 06:16:02;;;;;;;22.80;11.23;;;;;;;6.03;87.68;99291.16;5037147;28;20143;-81
2022/01/31 06:18:29;;;;;;;26.83;12.70;;;;;;;6.04;87.08;99290.03;5056164;28;20480;-81
2022/01/31 06:20:57;;;;;;;27.08;11.50;;;;;;;6.08;87.46;99282.72;5047756;28;20472;-81
2022/01/31 06:23:25;;;;;;;15.85;8.93;;;;;;;5.98;87.09;99279.41;5041076;28;20417;-80
2022/01/31 06:25:53;;;;;;;16.23;8.82;;;;;;;5.95;86.94;99275.31;5048189;28;20049;-81
2022/01/31 06:28:20;;;;;;;24.98;11.45;;;;;;;6.03;87.83;99282.88;5040339;28;20042;-82
2022/01/31 06:30:48;;;;;;;23.73;10.95;;;;;;;6.05;87.23;99257.69;5051536;28;20049;-83
2022/01/31 06:33:16;;;;;;;22.25;9.57;;;;;;;6.05;87.89;99275.09;5057242;28;20064;-83
2022/01/31 06:35:44;;;;;;;15.18;8.48;;;;;;;5.86;85.28;99257.84;5043944;28;20053;-83
2022/01/31 06:38:12;;;;;;;18.70;9.80;;;;;;;5.93;85.80;99269.25;5045417;28;20049;-82
2022/01/31 06:40:41;;;;;;;23.33;10.70;;;;;;;5.89;86.33;99263.53;5041721;28;20413;-82
2022/01/31 06:43:09;;;;;;;16.38;9.80;;;;;;;5.93;86.12;99255.44;5040566;28;20053;-82
2022/01/31 06:45:36;;;;;;;24.67;11.68;;;;;;;5.86;86.64;99252.31;5039963;28;20055;-82
2022/01/31 06:48:04;;;;;;;20.25;11.80;;;;;;;5.90;86.17;99256.91;5045519;28;20057;-83
2022/01/31 06:50:31;;;;;;;29.45;14.65;;;;;;;5.96;86.71;99267.84;5040985;28;20057;-83
2022/01/31 06:53:01;;;;;;;31.75;16.05;;;;;;;5.99;86.38;99254.22;5044466;28;20069;-83
2022/01/31 06:55:29;;;;;;;26.90;14.57;;;;;;;5.94;86.84;99257.06;5040203;28;20388;-83
2022/01/31 06:57:58;;;;;;;26.05;13.00;;;;;;;5.91;86.68;99260.47;5041658;28;20045;-82
2022/01/31 07:00:26;;;;;;;33.47;14.63;;;;;;;5.96;86.96;99254.03;5050210;28;20060;-82
2022/01/31 07:02:54;;;;;;;24.83;12.55;;;;;;;6.01;87.09;99251.97;5038996;28;20053;-82
2022/01/31 07:05:22;;;;;;;33.08;13.27;;;;;;;6.01;87.12;99257.50;5041359;28;20049;-84
2022/01/31 07:07:50;;;;;;;23.83;10.23;;;;;;;6.07;85.80;99247.94;5040715;28;20057;-84
2022/01/31 07:10:17;;;;;;;31.58;12.30;;;;;;;6.04;86.68;99239.47;5045997;28;20383;-84
2022/01/31 07:12:53;;;;;;;25.85;11.50;;;;;;;6.04;87.28;99231.16;5062077;28;20048;-83
2022/01/31 07:15:22;;;;;;;28.05;12.20;;;;;;;6.09;87.66;99231.06;5046110;28;20054;-84
2022/01/31 07:17:49;;;;;;;25.30;12.15;;;;;;;6.03;86.09;99233.13;5047341;28;20057;-84
2022/01/31 07:20:23;;;;;;;22.88;12.43;;;;;;;6.13;87.13;99226.50;5049609;28;20049;-83
2022/01/31 07:22:56;;;;;;;23.13;11.23;;;;;;;6.09;86.60;99223.56;5044812;28;20056;-83
2022/01/31 07:25:36;;;;;;;24.17;11.10;;;;;;;5.91;89.21;99213.50;5045503;28;20061;-84
2022/01/31 07:28:05;;;;;;;;;;;;;;;5.96;88.98;99232.72;5044081;28;20041;-83
2022/01/31 07:30:34;;;;;;;19.65;9.52;;;;;;;5.84;87.43;99218.66;5043525;28;19929;-82
2022/01/31 07:33:02;;;;;;;13.57;7.63;;;;;;;5.86;86.78;99255.06;5041401;28;20052;-82
2022/01/31 07:35:32;;;;;;;12.65;6.28;;;;;;;5.66;85.64;99262.69;5042183;28;20061;-82
2022/01/31 07:37:59;;;;;;;9.82;6.05;;;;;;;5.64;85.37;99253.91;5029142;28;20053;-84
2022/01/31 07:40:27;;;;;;;14.98;7.75;;;;;;;5.59;85.89;99256.78;5040418;28;20057;-84
2022/01/31 07:42:54;;;;;;;11.30;6.50;;;;;;;5.57;86.33;99263.75;5040705;28;20406;-84
2022/01/31 07:45:22;;;;;;;10.55;5.45;;;;;;;5.58;85.66;99260.66;5047602;28;20517;-83
2022/01/31 07:47:53;;;;;;;10.20;4.97;;;;;;;5.48;85.92;99252.59;5058207;28;20159;-82
2022/01/31 07:50:21;;;;;;;8.50;4.47;;;;;;;5.39;87.39;99248.97;5052137;28;20446;-81
2022/01/31 07:52:48;;;;;;;9.55;4.22;;;;;;;5.43;87.26;99263.78;5035969;28;20049;-85
2022/01/31 07:55:16;;;;;;;7.32;4.40;;;;;;;5.45;86.40;99261.53;5038248;28;20064;-84
2022/01/31 07:57:46;;;;;;;11.70;5.65;;;;;;;5.57;86.75;99248.00;5042890;28;20057;-84
2022/01/31 08:00:14;;;;;;;10.40;5.68;;;;;;;5.63;87.56;99240.44;5039961;28;20164;-85
2022/01/31 08:02:41;;;;;;;11.38;5.28;;;;;;;5.61;85.31;99242.69;5044146;28;20053;-83
2022/01/31 08:05:13;;;;;;;9.65;5.97;;;;;;;5.61;86.10;99242.69;5043041;28;20156;-85
2022/01/31 08:07:43;;;;;;;9.43;5.00;;;;;;;5.56;85.55;99243.59;5041281;28;20045;-84
2022/01/31 08:10:10;;;;;;;12.50;7.05;;;;;;;5.64;85.64;99236.53;5042504;28;20053;-86
2022/01/31 08:12:39;;;;;;;11.45;6.18;;;;;;;5.62;85.91;99242.34;5051080;28;20053;-85
2022/01/31 08:15:09;;;;;;;11.25;5.63;;;;;;;5.54;85.40;99239.50;5045639;28;20053;-86
2022/01/31 08:17:36;;;;;;;16.00;6.00;;;;;;;5.33;84.86;99241.91;5041436;28;20058;-87
2022/01/31 08:20:04;;;;;;;12.18;6.30;;;;;;;5.24;85.85;99234.34;5046101;28;20049;-87
2022/01/31 08:22:33;;;;;;;12.27;5.80;;;;;;;5.48;85.85;99236.88;5039089;28;20057;-85
2022/01/31 08:25:00;;;;;;;10.30;4.97;;;;;;;5.45;85.75;99231.97;5039197;28;20057;-85
2022/01/31 08:27:28;;;;;;;13.30;6.40;;;;;;;5.38;85.68;99231.59;5040240;28;20049;-86
2022/01/31 08:30:05;;;;;;;11.57;6.10;;;;;;;5.26;86.24;99226.59;5040746;28;20057;-85
2022/01/31 08:32:43;;;;;;;9.10;5.30;;;;;;;5.06;85.49;99225.09;5039794;28;20045;-84
2022/01/31 08:37:57;;;;;;;12.13;5.85;;;;;;;5.25;86.71;99213.13;5035421;28;20068;-85
2022/01/31 08:40:25;;;;;;;10.88;5.43;;;;;;;5.27;85.57;99206.16;5034691;28;20049;-83
2022/01/31 08:42:53;;;;;;;13.95;6.15;;;;;;;5.25;86.41;99202.88;5047788;28;20494;-83
2022/01/31 08:45:20;;;;;;;9.52;5.47;;;;;;;5.35;86.79;99201.81;5038964;28;20057;-84
2022/01/31 08:47:47;;;;;;;9.57;5.97;;;;;;;5.18;85.98;99190.63;5038713;28;20060;-84
2022/01/31 08:50:16;;;;;;;11.32;5.80;;;;;;;5.19;86.04;99195.03;5038689;28;20060;-86
2022/01/31 08:52:43;;;;;;;18.00;6.60;;;;;;;5.02;87.51;99185.44;5046375;28;20045;-86
2022/01/31 08:55:12;;;;;;;16.80;6.53;;;;;;;4.95;89.87;99189.75;5046853;28;20064;-86
2022/01/31 08:57:40;;;;;;;15.73;7.07;;;;;;;4.94;88.90;99182.59;5041318;28;20610;-85
2022/01/31 09:00:08;;;;;;;14.05;6.95;;;;;;;4.88;88.64;99187.41;5049137;28;20049;-83
2022/01/31 09:02:41;;;;;;;17.95;9.35;;;;;;;5.01;89.18;99180.22;5041193;28;20045;-81
2022/01/31 09:05:09;;;;;;;19.48;8.25;;;;;;;5.06;88.98;99177.34;5037323;28;20042;-84
2022/01/31 09:07:36;;;;;;;13.93;8.00;;;;;;;5.12;89.12;99172.53;5035974;28;20478;-83
2022/01/31 09:10:06;;;;;;;13.77;7.85;;;;;;;5.19;89.20;99184.00;5042538;28;20060;-84
2022/01/31 09:12:36;;;;;;;13.45;7.57;;;;;;;5.31;87.49;99169.63;5037829;28;20049;-84
2022/01/31 09:15:06;;;;;;;13.68;7.43;;;;;;;5.13;87.51;99180.50;5045588;28;20428;-84
2022/01/31 09:17:34;;;;;;;12.52;6.35;;;;;;;5.13;87.52;99175.00;5039409;28;20482;-84
2022/01/31 09:20:01;;;;;;;14.55;7.10;;;;;;;5.24;88.54;99175.59;5039084;28;20616;-83
2022/01/31 09:22:28;;;;;;;16.33;7.40;;;;;;;5.03;88.51;99162.22;5046766;28;20048;-85
2022/01/31 09:24:56;;;;;;;11.38;6.32;;;;;;;4.90;90.55;99156.75;5040949;28;20411;-84
2022/01/31 09:27:26;;;;;;;9.85;5.15;;;;;;;4.86;89.99;99162.88;5036367;28;20050;-83
2022/01/31 09:29:55;;;;;;;11.93;6.38;;;;;;;4.96;89.47;99150.00;5038274;28;20046;-83
2022/01/31 09:32:24;;;;;;;14.32;6.10;;;;;;;4.97;90.69;99148.84;5043008;28;20049;-85
2022/01/31 09:34:52;;;;;;;12.95;6.63;;;;;;;4.76;90.47;99152.06;5042151;28;20060;-87
2022/01/31 09:37:21;;;;;;;11.82;6.25;;;;;;;4.95;89.91;99151.91;5039221;28;20045;-88
2022/01/31 09:39:48;;;;;;;12.65;6.32;;;;;;;4.98;89.02;99143.03;5037783;28;20064;-84
2022/01/31 09:42:25;;;;;;;12.88;6.53;;;;;;;4.87;90.74;99139.69;5039434;28;20046;-82
2022/01/31 09:45:07;;;;;;;17.48;9.05;;;;;;;5.05;91.84;99134.31;5039985;28;20049;-82
2022/01/31 09:50:17;;;;;;;22.35;9.25;;;;;;;5.36;90.81;99142.72;5046119;28;20148;-83
2022/01/31 09:52:47;;;;;;;15.18;7.05;;;;;;;5.48;89.04;99140.22;5037504;28;20057;-83
2022/01/31 09:55:14;;;;;;;;;;;;;;;5.42;88.02;99148.94;5037199;28;20060;-84
2022/01/31 09:57:41;;;;;;;12.75;7.60;;;;;;;5.48;88.53;99134.69;5037833;28;20317;-84
2022/01/31 10:00:10;;;;;;;15.63;7.32;;;;;;;5.64;88.51;99137.88;5038388;28;20056;-83
2022/01/31 10:02:39;;;;;;;20.23;8.07;;;;;;;5.68;88.58;99138.06;5036102;28;20151;-86
2022/01/31 10:05:07;;;;;;;12.97;7.20;;;;;;;5.72;87.62;99143.81;5036150;28;20053;-85
2022/01/31 10:07:46;;;;;;;13.15;6.43;;;;;;;5.75;87.45;99143.16;5035579;28;20049;-85
2022/01/31 10:10:21;;;;;;;11.90;6.88;;;;;;;5.69;88.07;99154.34;5038053;28;20057;-85
2022/01/31 10:18:20;;;;;;;13.55;7.70;;;;;;;5.80;86.85;99148.56;5054213;28;20052;-84
2022/01/31 10:20:48;;;;;;;18.90;8.13;;;;;;;5.80;87.13;99151.34;5039562;28;20064;-85
2022/01/31 10:23:16;;;;;;;13.32;7.25;;;;;;;5.92;86.23;99159.84;5032631;28;20506;-83
2022/01/31 10:25:44;;;;;;;13.77;7.95;;;;;;;5.89;86.25;99152.19;5036895;28;20049;-83
2022/01/31 10:28:13;;;;;;;14.38;7.65;;;;;;;5.95;85.73;99173.06;5035463;28;20070;-84
2022/01/31 10:30:40;;;;;;;12.10;7.10;;;;;;;5.80;86.02;99170.66;5036766;28;20060;-82
2022/01/31 10:33:09;;;;;;;14.27;7.78;;;;;;;5.82;87.00;99176.69;5037230;28;20045;-82
2022/01/31 10:35:39;;;;;;;16.63;7.20;;;;;;;5.91;85.50;99177.56;5037474;28;20049;-84
2022/01/31 10:38:11;;;;;;;10.48;5.78;;;;;;;5.76;85.60;99183.47;5034585;28;20056;-84
2022/01/31 10:50:37;;;;;;;10.30;5.82;;;;;;;5.87;86.36;99198.66;5030474;28;20053;-83
2022/01/31 10:52:33;;;;;;;10.15;4.90;;;;;;;5.96;86.03;99207.84;5031459;28;20060;-83
2022/01/31 10:55:14;;;;;;;14.00;5.90;;;;;;;5.93;86.45;99208.47;5018364;28;20061;-83
2022/01/31 10:57:41;;;;;;;11.35;4.82;;;;;;;6.00;86.22;99208.84;5036118;28;20064;-83
2022/01/31 11:00:09;;;;;;;8.07;4.18;;;;;;;5.99;86.20;99211.97;5035175;28;20083;-83
2022/01/31 11:02:37;;;;;;;6.18;3.00;;;;;;;6.07;84.70;99223.06;5043705;28;20052;-84
2022/01/31 11:05:22;;;;;;;6.80;2.92;;;;;;;6.01;83.97;99218.78;5044636;28;20053;-83
2022/01/31 11:07:51;;;;;;;5.88;2.47;;;;;;;6.05;84.37;99205.16;5044482;28;20042;-83
2022/01/31 11:10:28;;;;;;;9.10;1.98;;;;;;;6.08;83.58;99223.88;5041002;28;20065;-84
2022/01/31 11:12:55;;;;;;;6.40;2.45;;;;;;;6.19;84.66;99216.94;5042935;28;20045;-83
2022/01/31 11:15:23;;;;;;;5.05;1.50;;;;;;;6.12;83.41;99227.66;5047067;28;20056;-83
2022/01/31 11:17:59;;;;;;;5.60;2.25;;;;;;;6.21;84.82;99233.22;5040892;28;20064;-84
2022/01/31 11:20:27;;;;;;;6.38;2.05;;;;;;;6.17;84.82;99233.03;5052377;28;20054;-84
2022/01/31 11:23:00;;;;;;;4.75;1.77;;;;;;;6.25;84.06;99239.75;5025191;28;20474;-83
2022/01/31 11:25:29;;;;;;;5.75;2.08;;;;;;;6.30;84.72;99247.94;5044497;28;20405;-87
2022/01/31 11:28:02;;;;;;;5.90;2.20;;;;;;;6.37;84.42;99253.81;5040015;28;20049;-83
2022/01/31 11:30:30;;;;;;;5.35;2.00;;;;;;;6.39;84.83;99265.38;5041891;28;20049;-83
2022/01/31 11:32:58;;;;;;;4.40;1.70;;;;;;;6.36;84.88;99268.75;5041853;28;20064;-83
2022/01/31 11:35:25;;;;;;;4.93;2.63;;;;;;;6.53;84.66;99281.06;5042567;28;20490;-82
2022/01/31 11:37:53;;;;;;;6.60;1.90;;;;;;;6.41;82.64;99289.97;5038061;28;20050;-81
2022/01/31 11:40:23;;;;;;;3.28;1.83;;;;;;;6.52;83.43;99294.09;5036342;28;20072;-82
2022/01/31 11:42:52;;;;;;;;;;;;;;;6.56;83.03;99300.63;5036453;28;20057;-82
2022/01/31 11:45:25;;;;;;;5.22;1.73;;;;;;;6.59;83.49;99305.50;5035340;28;19921;-82
2022/01/31 11:47:52;;;;;;;4.95;1.70;;;;;;;6.57;84.04;99306.97;5038525;28;20052;-81
2022/01/31 11:50:22;;;;;;;7.00;2.22;;;;;;;6.57;84.50;99318.03;5030428;28;20045;-83
2022/01/31 11:52:51;;;;;;;4.25;1.75;;;;;;;6.68;85.03;99330.50;5036625;28;20056;-82
2022/01/31 11:55:20;;;;;;;5.70;1.87;;;;;;;6.61;84.84;99341.16;5038399;28;20064;-83
2022/01/31 11:57:52;;;;;;;5.87;2.07;;;;;;;6.60;85.28;99336.78;5047594;28;20049;-83
2022/01/31 12:00:22;;;;;;;2.78;1.48;;;;;;;6.64;84.52;99344.13;5037867;28;20053;-84